sensor_id;sensor_type;location;lat;lon;timestamp;temperature;humidity
37530;DHT22;23374;52.758;6.872;2023-04-09T00:00:03;8.90;99.90
37530;DHT22;23374;52.758;6.872;2023-04-09T00:02:24;9.00;99.90
37530;DHT22;23374;52.758;6.872;2023-04-09T00:04:45;9.00;99.90
37530;DHT22;23374;52.758;6.872;2023-04-09T00:07:05;9.00;99.90
37530;DHT22;23374;52.758;6.872;2023-04-09T00:09:26;9.00;99.90
37530;DHT22;23374;52.758;6.872;2023-04-09T00:11:46;9.00;99.90
37530;DHT22;23374;52.758;6.872;2023-04-09T00:14:06;9.00;99.90
37530;DHT22;23374;52.758;6.872;2023-04-09T00:16:26;9.00;99.90
37530;DHT22;23374;52.758;6.872;2023-04-09T00:18:47;9.00;99.90
37530;DHT22;23374;52.758;6.872;2023-04-09T00:21:07;8.90;99.90
37530;DHT22;23374;52.758;6.872;2023-04-09T00:23:27;9.00;99.90
37530;DHT22;23374;52.758;6.872;2023-04-09T00:25:48;9.00;99.90
37530;DHT22;23374;52.758;6.872;2023-04-09T00:28:08;9.00;99.90
37530;DHT22;23374;52.758;6.872;2023-04-09T00:30:30;8.90;99.90
37530;DHT22;23374;52.758;6.872;2023-04-09T00:32:50;9.00;99.90
37530;DHT22;23374;52.758;6.872;2023-04-09T00:35:10;9.00;99.90
37530;DHT22;23374;52.758;6.872;2023-04-09T00:37:31;9.00;99.90
37530;DHT22;23374;52.758;6.872;2023-04-09T00:39:51;9.00;99.90
37530;DHT22;23374;52.758;6.872;2023-04-09T00:42:12;9.00;99.90
37530;DHT22;23374;52.758;6.872;2023-04-09T00:44:32;9.10;99.90
37530;DHT22;23374;52.758;6.872;2023-04-09T00:46:53;9.10;99.90
37530;DHT22;23374;52.758;6.872;2023-04-09T00:49:14;9.10;99.90
37530;DHT22;23374;52.758;6.872;2023-04-09T00:51:35;9.10;99.90
37530;DHT22;23374;52.758;6.872;2023-04-09T00:53:56;9.10;99.90
37530;DHT22;23374;52.758;6.872;2023-04-09T00:56:17;9.20;99.90
37530;DHT22;23374;52.758;6.872;2023-04-09T00:58:39;9.20;99.90
37530;DHT22;23374;52.758;6.872;2023-04-09T01:01:00;9.20;99.90
37530;DHT22;23374;52.758;6.872;2023-04-09T01:03:21;9.20;99.90
37530;DHT22;23374;52.758;6.872;2023-04-09T01:08:31;9.20;99.90
37530;DHT22;23374;52.758;6.872;2023-04-09T01:11:23;9.20;99.90
37530;DHT22;23374;52.758;6.872;2023-04-09T01:14:20;9.20;99.90
37530;DHT22;23374;52.758;6.872;2023-04-09T01:16:47;9.20;99.90
37530;DHT22;23374;52.758;6.872;2023-04-09T01:21:49;9.10;99.90
37530;DHT22;23374;52.758;6.872;2023-04-09T01:29:50;9.00;99.90
37530;DHT22;23374;52.758;6.872;2023-04-09T01:32:15;8.90;99.90
37530;DHT22;23374;52.758;6.872;2023-04-09T01:34:36;8.80;99.90
37530;DHT22;23374;52.758;6.872;2023-04-09T01:36:59;8.80;99.90
37530;DHT22;23374;52.758;6.872;2023-04-09T01:39:22;8.80;99.90
37530;DHT22;23374;52.758;6.872;2023-04-09T01:41:42;8.80;99.90
37530;DHT22;23374;52.758;6.872;2023-04-09T01:44:04;8.80;99.90
37530;DHT22;23374;52.758;6.872;2023-04-09T01:46:28;8.80;99.90
37530;DHT22;23374;52.758;6.872;2023-04-09T01:48:48;8.80;99.90
37530;DHT22;23374;52.758;6.872;2023-04-09T01:51:09;8.80;99.90
37530;DHT22;23374;52.758;6.872;2023-04-09T01:53:29;8.90;99.90
37530;DHT22;23374;52.758;6.872;2023-04-09T01:55:49;8.90;99.90
37530;DHT22;23374;52.758;6.872;2023-04-09T01:58:10;8.80;99.90
37530;DHT22;23374;52.758;6.872;2023-04-09T02:00:37;8.80;99.90
37530;DHT22;23374;52.758;6.872;2023-04-09T02:03:18;8.80;99.90
37530;DHT22;23374;52.758;6.872;2023-04-09T02:06:19;8.80;99.90
37530;DHT22;23374;52.758;6.872;2023-04-09T02:08:45;8.80;99.90
37530;DHT22;23374;52.758;6.872;2023-04-09T02:11:08;8.80;99.90
37530;DHT22;23374;52.758;6.872;2023-04-09T02:13:31;8.70;99.90
37530;DHT22;23374;52.758;6.872;2023-04-09T02:15:52;8.70;99.90
37530;DHT22;23374;52.758;6.872;2023-04-09T02:18:28;8.70;99.90
37530;DHT22;23374;52.758;6.872;2023-04-09T02:20:49;8.70;99.90
37530;DHT22;23374;52.758;6.872;2023-04-09T02:23:09;8.60;99.90
37530;DHT22;23374;52.758;6.872;2023-04-09T02:25:30;8.60;99.90
37530;DHT22;23374;52.758;6.872;2023-04-09T02:27:51;8.60;99.90
37530;DHT22;23374;52.758;6.872;2023-04-09T02:30:11;8.60;99.90
37530;DHT22;23374;52.758;6.872;2023-04-09T02:32:32;8.60;99.90
37530;DHT22;23374;52.758;6.872;2023-04-09T02:34:52;8.60;99.90
37530;DHT22;23374;52.758;6.872;2023-04-09T02:37:12;8.70;99.90
37530;DHT22;23374;52.758;6.872;2023-04-09T02:39:32;8.60;99.90
37530;DHT22;23374;52.758;6.872;2023-04-09T02:41:52;8.60;1.00
37530;DHT22;23374;52.758;6.872;2023-04-09T02:44:12;8.60;1.00
37530;DHT22;23374;52.758;6.872;2023-04-09T02:46:32;8.70;1.00
37530;DHT22;23374;52.758;6.872;2023-04-09T02:48:52;8.70;1.00
37530;DHT22;23374;52.758;6.872;2023-04-09T02:51:12;8.60;1.00
37530;DHT22;23374;52.758;6.872;2023-04-09T02:53:32;8.70;1.00
37530;DHT22;23374;52.758;6.872;2023-04-09T02:55:52;8.70;1.00
37530;DHT22;23374;52.758;6.872;2023-04-09T02:58:12;8.60;18.50
37530;DHT22;23374;52.758;6.872;2023-04-09T03:00:32;8.70;31.40
37530;DHT22;23374;52.758;6.872;2023-04-09T03:02:53;8.60;1.00
37530;DHT22;23374;52.758;6.872;2023-04-09T03:05:13;8.60;21.00
37530;DHT22;23374;52.758;6.872;2023-04-09T03:07:33;8.60;19.60
37530;DHT22;23374;52.758;6.872;2023-04-09T03:09:53;8.50;42.10
37530;DHT22;23374;52.758;6.872;2023-04-09T03:12:14;8.60;65.20
37530;DHT22;23374;52.758;6.872;2023-04-09T03:14:34;8.50;33.60
37530;DHT22;23374;52.758;6.872;2023-04-09T03:16:54;8.50;35.30
37530;DHT22;23374;52.758;6.872;2023-04-09T03:19:15;8.50;53.60
37530;DHT22;23374;52.758;6.872;2023-04-09T03:21:35;8.50;46.10
37530;DHT22;23374;52.758;6.872;2023-04-09T03:23:55;8.50;79.30
37530;DHT22;23374;52.758;6.872;2023-04-09T03:26:15;8.50;99.90
37530;DHT22;23374;52.758;6.872;2023-04-09T03:28:35;8.50;99.90
37530;DHT22;23374;52.758;6.872;2023-04-09T03:30:55;8.50;87.10
37530;DHT22;23374;52.758;6.872;2023-04-09T03:33:16;8.50;64.00
37530;DHT22;23374;52.758;6.872;2023-04-09T03:35:36;8.50;99.90
37530;DHT22;23374;52.758;6.872;2023-04-09T03:37:57;8.50;56.80
37530;DHT22;23374;52.758;6.872;2023-04-09T03:40:17;8.50;99.90
37530;DHT22;23374;52.758;6.872;2023-04-09T03:42:37;8.50;47.90
37530;DHT22;23374;52.758;6.872;2023-04-09T03:44:57;8.50;59.00
37530;DHT22;23374;52.758;6.872;2023-04-09T03:47:17;8.40;1.00
37530;DHT22;23374;52.758;6.872;2023-04-09T03:49:37;8.50;1.00
37530;DHT22;23374;52.758;6.872;2023-04-09T03:51:57;8.50;1.00
37530;DHT22;23374;52.758;6.872;2023-04-09T03:54:17;8.50;1.00
37530;DHT22;23374;52.758;6.872;2023-04-09T03:56:37;8.50;1.00
37530;DHT22;23374;52.758;6.872;2023-04-09T03:58:58;8.60;5.90
37530;DHT22;23374;52.758;6.872;2023-04-09T04:01:18;8.50;1.00
37530;DHT22;23374;52.758;6.872;2023-04-09T04:03:38;8.50;1.00
37530;DHT22;23374;52.758;6.872;2023-04-09T04:06:03;8.50;1.00
37530;DHT22;23374;52.758;6.872;2023-04-09T04:08:23;8.50;1.00
37530;DHT22;23374;52.758;6.872;2023-04-09T04:10:43;8.50;14.80
37530;DHT22;23374;52.758;6.872;2023-04-09T04:13:05;8.50;1.00
37530;DHT22;23374;52.758;6.872;2023-04-09T04:15:27;8.50;7.30
37530;DHT22;23374;52.758;6.872;2023-04-09T04:17:48;8.50;32.50
37530;DHT22;23374;52.758;6.872;2023-04-09T04:20:08;8.50;3.80
37530;DHT22;23374;52.758;6.872;2023-04-09T04:22:28;8.50;55.60
37530;DHT22;23374;52.758;6.872;2023-04-09T04:24:48;8.50;1.00
37530;DHT22;23374;52.758;6.872;2023-04-09T04:27:09;8.60;1.00
37530;DHT22;23374;52.758;6.872;2023-04-09T04:29:29;8.60;1.00
37530;DHT22;23374;52.758;6.872;2023-04-09T04:31:49;8.50;1.00
37530;DHT22;23374;52.758;6.872;2023-04-09T04:34:10;8.50;33.60
37530;DHT22;23374;52.758;6.872;2023-04-09T04:36:30;8.60;1.00
37530;DHT22;23374;52.758;6.872;2023-04-09T04:38:50;8.50;1.00
37530;DHT22;23374;52.758;6.872;2023-04-09T04:41:10;8.50;1.00
37530;DHT22;23374;52.758;6.872;2023-04-09T04:43:31;8.50;1.00
37530;DHT22;23374;52.758;6.872;2023-04-09T04:45:51;8.50;1.00
37530;DHT22;23374;52.758;6.872;2023-04-09T04:48:11;8.50;1.00
37530;DHT22;23374;52.758;6.872;2023-04-09T04:50:34;8.40;1.00
37530;DHT22;23374;52.758;6.872;2023-04-09T04:52:54;8.50;1.00
37530;DHT22;23374;52.758;6.872;2023-04-09T04:55:14;8.40;1.00
37530;DHT22;23374;52.758;6.872;2023-04-09T04:57:34;8.50;1.00
37530;DHT22;23374;52.758;6.872;2023-04-09T04:59:55;8.50;1.00
37530;DHT22;23374;52.758;6.872;2023-04-09T05:02:15;8.50;1.00
37530;DHT22;23374;52.758;6.872;2023-04-09T05:04:35;8.50;1.00
37530;DHT22;23374;52.758;6.872;2023-04-09T05:06:55;8.50;1.00
37530;DHT22;23374;52.758;6.872;2023-04-09T05:09:15;8.50;99.90
37530;DHT22;23374;52.758;6.872;2023-04-09T05:11:36;8.50;1.00
37530;DHT22;23374;52.758;6.872;2023-04-09T05:13:56;8.50;99.90
37530;DHT22;23374;52.758;6.872;2023-04-09T05:16:18;8.50;99.90
37530;DHT22;23374;52.758;6.872;2023-04-09T05:18:39;8.50;99.90
37530;DHT22;23374;52.758;6.872;2023-04-09T05:20:59;8.50;99.90
37530;DHT22;23374;52.758;6.872;2023-04-09T05:23:19;8.60;99.90
37530;DHT22;23374;52.758;6.872;2023-04-09T05:25:40;8.50;45.20
37530;DHT22;23374;52.758;6.872;2023-04-09T05:28:00;8.50;1.00
37530;DHT22;23374;52.758;6.872;2023-04-09T05:30:20;8.50;1.00
37530;DHT22;23374;52.758;6.872;2023-04-09T05:32:40;8.50;1.00
37530;DHT22;23374;52.758;6.872;2023-04-09T05:35:00;8.60;35.00
37530;DHT22;23374;52.758;6.872;2023-04-09T05:37:20;8.60;1.00
37530;DHT22;23374;52.758;6.872;2023-04-09T05:39:41;8.60;1.00
37530;DHT22;23374;52.758;6.872;2023-04-09T05:42:01;8.60;99.90
37530;DHT22;23374;52.758;6.872;2023-04-09T05:44:21;8.60;88.10
37530;DHT22;23374;52.758;6.872;2023-04-09T05:46:41;8.60;99.90
37530;DHT22;23374;52.758;6.872;2023-04-09T05:49:01;8.60;99.90
37530;DHT22;23374;52.758;6.872;2023-04-09T05:51:22;8.60;1.00
37530;DHT22;23374;52.758;6.872;2023-04-09T05:53:42;8.60;1.00
37530;DHT22;23374;52.758;6.872;2023-04-09T05:56:12;8.50;99.90
37530;DHT22;23374;52.758;6.872;2023-04-09T05:58:33;8.50;1.00
37530;DHT22;23374;52.758;6.872;2023-04-09T06:00:53;8.50;99.90
37530;DHT22;23374;52.758;6.872;2023-04-09T06:03:14;8.50;1.00
37530;DHT22;23374;52.758;6.872;2023-04-09T06:05:34;8.60;1.00
37530;DHT22;23374;52.758;6.872;2023-04-09T06:07:54;8.60;99.90
37530;DHT22;23374;52.758;6.872;2023-04-09T06:10:15;8.60;99.90
37530;DHT22;23374;52.758;6.872;2023-04-09T06:12:35;8.60;99.90
37530;DHT22;23374;52.758;6.872;2023-04-09T06:14:56;8.60;99.90
37530;DHT22;23374;52.758;6.872;2023-04-09T06:17:16;8.60;99.90
37530;DHT22;23374;52.758;6.872;2023-04-09T06:19:37;8.60;99.90
37530;DHT22;23374;52.758;6.872;2023-04-09T06:21:57;8.60;1.00
37530;DHT22;23374;52.758;6.872;2023-04-09T06:24:17;8.60;1.00
37530;DHT22;23374;52.758;6.872;2023-04-09T06:26:37;8.60;1.00
37530;DHT22;23374;52.758;6.872;2023-04-09T06:28:57;8.60;1.00
37530;DHT22;23374;52.758;6.872;2023-04-09T06:31:19;8.70;1.00
37530;DHT22;23374;52.758;6.872;2023-04-09T06:33:39;8.70;1.00
37530;DHT22;23374;52.758;6.872;2023-04-09T06:36:00;8.70;1.00
37530;DHT22;23374;52.758;6.872;2023-04-09T06:38:20;8.70;1.00
37530;DHT22;23374;52.758;6.872;2023-04-09T06:40:41;8.70;1.00
37530;DHT22;23374;52.758;6.872;2023-04-09T06:43:01;8.70;1.00
37530;DHT22;23374;52.758;6.872;2023-04-09T06:45:21;8.80;1.00
37530;DHT22;23374;52.758;6.872;2023-04-09T06:47:41;8.80;1.00
37530;DHT22;23374;52.758;6.872;2023-04-09T06:50:02;8.90;1.00
37530;DHT22;23374;52.758;6.872;2023-04-09T06:52:22;8.90;1.00
37530;DHT22;23374;52.758;6.872;2023-04-09T06:54:42;9.00;1.00
37530;DHT22;23374;52.758;6.872;2023-04-09T06:57:02;9.00;1.00
37530;DHT22;23374;52.758;6.872;2023-04-09T06:59:23;9.00;1.00
37530;DHT22;23374;52.758;6.872;2023-04-09T07:01:43;9.00;99.90
37530;DHT22;23374;52.758;6.872;2023-04-09T07:04:04;9.00;99.90
37530;DHT22;23374;52.758;6.872;2023-04-09T07:06:24;8.90;99.90
37530;DHT22;23374;52.758;6.872;2023-04-09T07:08:44;8.90;99.90
37530;DHT22;23374;52.758;6.872;2023-04-09T07:11:05;8.90;99.90
37530;DHT22;23374;52.758;6.872;2023-04-09T07:13:25;9.00;1.00
37530;DHT22;23374;52.758;6.872;2023-04-09T07:15:45;9.00;66.40
37530;DHT22;23374;52.758;6.872;2023-04-09T07:18:06;9.00;1.00
37530;DHT22;23374;52.758;6.872;2023-04-09T07:20:26;9.00;1.00
37530;DHT22;23374;52.758;6.872;2023-04-09T07:22:46;8.90;99.90
37530;DHT22;23374;52.758;6.872;2023-04-09T07:25:07;8.90;99.90
37530;DHT22;23374;52.758;6.872;2023-04-09T07:27:28;8.90;99.90
37530;DHT22;23374;52.758;6.872;2023-04-09T07:29:48;8.90;99.90
37530;DHT22;23374;52.758;6.872;2023-04-09T07:32:08;8.90;1.00
37530;DHT22;23374;52.758;6.872;2023-04-09T07:34:28;9.00;99.90
37530;DHT22;23374;52.758;6.872;2023-04-09T07:36:48;9.00;99.90
37530;DHT22;23374;52.758;6.872;2023-04-09T07:39:09;9.00;1.00
37530;DHT22;23374;52.758;6.872;2023-04-09T07:41:29;9.10;99.90
37530;DHT22;23374;52.758;6.872;2023-04-09T07:43:50;9.10;1.00
37530;DHT22;23374;52.758;6.872;2023-04-09T07:46:10;9.20;1.00
37530;DHT22;23374;52.758;6.872;2023-04-09T07:48:36;9.20;1.00
37530;DHT22;23374;52.758;6.872;2023-04-09T07:50:56;9.30;1.00
37530;DHT22;23374;52.758;6.872;2023-04-09T07:53:17;9.40;1.00
37530;DHT22;23374;52.758;6.872;2023-04-09T07:55:37;9.40;1.00
37530;DHT22;23374;52.758;6.872;2023-04-09T07:57:57;9.40;1.00
37530;DHT22;23374;52.758;6.872;2023-04-09T08:00:18;9.50;99.90
37530;DHT22;23374;52.758;6.872;2023-04-09T08:02:38;9.60;1.00
37530;DHT22;23374;52.758;6.872;2023-04-09T08:04:58;9.70;1.00
37530;DHT22;23374;52.758;6.872;2023-04-09T08:07:18;9.80;59.30
37530;DHT22;23374;52.758;6.872;2023-04-09T08:09:38;9.90;1.00
37530;DHT22;23374;52.758;6.872;2023-04-09T08:11:58;9.90;99.90
37530;DHT22;23374;52.758;6.872;2023-04-09T08:14:18;10.00;1.00
37530;DHT22;23374;52.758;6.872;2023-04-09T08:16:43;10.10;1.00
37530;DHT22;23374;52.758;6.872;2023-04-09T08:19:03;10.10;1.00
37530;DHT22;23374;52.758;6.872;2023-04-09T08:21:23;10.20;1.00
37530;DHT22;23374;52.758;6.872;2023-04-09T08:23:44;10.30;1.00
37530;DHT22;23374;52.758;6.872;2023-04-09T08:26:04;10.40;1.00
37530;DHT22;23374;52.758;6.872;2023-04-09T08:28:24;10.50;39.60
37530;DHT22;23374;52.758;6.872;2023-04-09T08:30:45;10.60;1.00
37530;DHT22;23374;52.758;6.872;2023-04-09T08:33:06;10.70;1.00
37530;DHT22;23374;52.758;6.872;2023-04-09T08:35:28;10.70;1.00
37530;DHT22;23374;52.758;6.872;2023-04-09T08:37:49;10.70;1.00
37530;DHT22;23374;52.758;6.872;2023-04-09T08:40:10;10.70;99.90
37530;DHT22;23374;52.758;6.872;2023-04-09T08:42:33;10.70;99.90
37530;DHT22;23374;52.758;6.872;2023-04-09T08:44:55;10.70;1.00
37530;DHT22;23374;52.758;6.872;2023-04-09T08:47:16;10.80;1.00
37530;DHT22;23374;52.758;6.872;2023-04-09T08:49:39;10.90;99.90
37530;DHT22;23374;52.758;6.872;2023-04-09T08:51:59;11.00;1.00
37530;DHT22;23374;52.758;6.872;2023-04-09T08:54:20;11.00;99.90
37530;DHT22;23374;52.758;6.872;2023-04-09T08:56:40;11.00;1.00
37530;DHT22;23374;52.758;6.872;2023-04-09T08:59:01;11.10;1.00
37530;DHT22;23374;52.758;6.872;2023-04-09T09:01:29;11.10;99.90
37530;DHT22;23374;52.758;6.872;2023-04-09T09:04:07;11.20;99.90
37530;DHT22;23374;52.758;6.872;2023-04-09T09:06:29;11.20;99.90
37530;DHT22;23374;52.758;6.872;2023-04-09T09:09:09;11.40;99.90
37530;DHT22;23374;52.758;6.872;2023-04-09T09:11:29;11.50;99.90
37530;DHT22;23374;52.758;6.872;2023-04-09T09:13:57;11.60;99.90
37530;DHT22;23374;52.758;6.872;2023-04-09T09:16:18;11.60;99.90
37530;DHT22;23374;52.758;6.872;2023-04-09T09:18:42;11.70;99.90
37530;DHT22;23374;52.758;6.872;2023-04-09T09:21:16;11.80;99.90
37530;DHT22;23374;52.758;6.872;2023-04-09T09:23:36;11.90;93.70
37530;DHT22;23374;52.758;6.872;2023-04-09T09:25:57;12.00;1.00
37530;DHT22;23374;52.758;6.872;2023-04-09T09:28:17;12.00;75.00
37530;DHT22;23374;52.758;6.872;2023-04-09T09:30:39;12.10;1.00
37530;DHT22;23374;52.758;6.872;2023-04-09T09:33:08;12.10;99.90
37530;DHT22;23374;52.758;6.872;2023-04-09T09:35:29;12.20;1.00
37530;DHT22;23374;52.758;6.872;2023-04-09T09:38:03;12.30;1.00
37530;DHT22;23374;52.758;6.872;2023-04-09T09:40:26;12.30;1.00
37530;DHT22;23374;52.758;6.872;2023-04-09T09:42:55;12.40;1.00
37530;DHT22;23374;52.758;6.872;2023-04-09T09:45:19;12.40;1.00
37530;DHT22;23374;52.758;6.872;2023-04-09T09:47:39;12.40;1.00
37530;DHT22;23374;52.758;6.872;2023-04-09T09:50:01;12.50;1.00
37530;DHT22;23374;52.758;6.872;2023-04-09T09:52:25;12.60;1.00
37530;DHT22;23374;52.758;6.872;2023-04-09T09:54:51;12.70;1.00
37530;DHT22;23374;52.758;6.872;2023-04-09T09:57:12;12.70;1.00
37530;DHT22;23374;52.758;6.872;2023-04-09T09:59:46;12.80;1.00
37530;DHT22;23374;52.758;6.872;2023-04-09T10:02:18;12.90;99.90
37530;DHT22;23374;52.758;6.872;2023-04-09T10:04:38;12.90;99.90
37530;DHT22;23374;52.758;6.872;2023-04-09T10:07:00;13.00;1.00
37530;DHT22;23374;52.758;6.872;2023-04-09T10:09:26;13.00;99.90
37530;DHT22;23374;52.758;6.872;2023-04-09T10:11:47;13.10;99.90
37530;DHT22;23374;52.758;6.872;2023-04-09T10:14:08;13.20;99.90
37530;DHT22;23374;52.758;6.872;2023-04-09T10:16:29;13.20;99.90
37530;DHT22;23374;52.758;6.872;2023-04-09T10:18:50;13.20;1.00
37530;DHT22;23374;52.758;6.872;2023-04-09T10:21:58;13.20;99.90
37530;DHT22;23374;52.758;6.872;2023-04-09T10:24:23;13.30;99.90
37530;DHT22;23374;52.758;6.872;2023-04-09T10:26:44;13.40;99.90
37530;DHT22;23374;52.758;6.872;2023-04-09T10:29:11;13.40;99.90
37530;DHT22;23374;52.758;6.872;2023-04-09T10:33:27;13.40;99.90
37530;DHT22;23374;52.758;6.872;2023-04-09T10:35:47;13.60;1.00
37530;DHT22;23374;52.758;6.872;2023-04-09T10:38:08;13.50;73.10
37530;DHT22;23374;52.758;6.872;2023-04-09T10:40:29;13.60;1.00
37530;DHT22;23374;52.758;6.872;2023-04-09T10:42:49;13.60;99.90
37530;DHT22;23374;52.758;6.872;2023-04-09T10:45:14;13.70;27.80
37530;DHT22;23374;52.758;6.872;2023-04-09T10:47:38;13.70;1.00
37530;DHT22;23374;52.758;6.872;2023-04-09T10:49:59;13.70;1.00
37530;DHT22;23374;52.758;6.872;2023-04-09T10:52:32;13.70;99.90
37530;DHT22;23374;52.758;6.872;2023-04-09T10:54:53;13.80;99.90
37530;DHT22;23374;52.758;6.872;2023-04-09T10:57:20;13.70;36.90
37530;DHT22;23374;52.758;6.872;2023-04-09T10:59:49;13.60;99.90
37530;DHT22;23374;52.758;6.872;2023-04-09T11:03:43;13.60;99.90
37530;DHT22;23374;52.758;6.872;2023-04-09T11:06:08;13.70;1.00
37530;DHT22;23374;52.758;6.872;2023-04-09T11:08:31;13.70;99.90
37530;DHT22;23374;52.758;6.872;2023-04-09T11:10:52;13.70;99.90
37530;DHT22;23374;52.758;6.872;2023-04-09T11:13:17;13.80;99.90
37530;DHT22;23374;52.758;6.872;2023-04-09T11:15:40;13.90;99.90
37530;DHT22;23374;52.758;6.872;2023-04-09T11:18:00;14.10;99.90
37530;DHT22;23374;52.758;6.872;2023-04-09T11:20:23;14.30;34.20
37530;DHT22;23374;52.758;6.872;2023-04-09T11:22:44;14.40;1.00
37530;DHT22;23374;52.758;6.872;2023-04-09T11:25:05;14.40;1.00
37530;DHT22;23374;52.758;6.872;2023-04-09T11:27:25;14.50;1.00
37530;DHT22;23374;52.758;6.872;2023-04-09T11:29:46;14.50;99.90
37530;DHT22;23374;52.758;6.872;2023-04-09T11:32:06;14.60;55.70
37530;DHT22;23374;52.758;6.872;2023-04-09T11:34:27;14.70;1.00
37530;DHT22;23374;52.758;6.872;2023-04-09T11:36:48;14.70;1.00
37530;DHT22;23374;52.758;6.872;2023-04-09T11:39:09;14.70;1.00
37530;DHT22;23374;52.758;6.872;2023-04-09T11:41:36;14.70;1.00
37530;DHT22;23374;52.758;6.872;2023-04-09T11:43:56;14.60;1.00
37530;DHT22;23374;52.758;6.872;2023-04-09T11:46:17;14.50;1.00
37530;DHT22;23374;52.758;6.872;2023-04-09T11:48:37;14.50;1.00
37530;DHT22;23374;52.758;6.872;2023-04-09T11:50:58;14.60;8.80
37530;DHT22;23374;52.758;6.872;2023-04-09T11:53:20;14.60;25.30
37530;DHT22;23374;52.758;6.872;2023-04-09T11:55:40;14.70;1.00
37530;DHT22;23374;52.758;6.872;2023-04-09T11:58:00;14.70;1.00
37530;DHT22;23374;52.758;6.872;2023-04-09T12:00:22;14.80;1.00
37530;DHT22;23374;52.758;6.872;2023-04-09T12:02:47;14.70;99.90
37530;DHT22;23374;52.758;6.872;2023-04-09T12:05:10;14.70;1.00
37530;DHT22;23374;52.758;6.872;2023-04-09T12:07:34;14.80;1.00
37530;DHT22;23374;52.758;6.872;2023-04-09T12:09:54;14.80;1.00
37530;DHT22;23374;52.758;6.872;2023-04-09T12:12:23;14.80;1.00
37530;DHT22;23374;52.758;6.872;2023-04-09T12:14:45;14.60;1.00
37530;DHT22;23374;52.758;6.872;2023-04-09T12:17:07;14.60;1.00
37530;DHT22;23374;52.758;6.872;2023-04-09T12:19:27;14.70;99.90
37530;DHT22;23374;52.758;6.872;2023-04-09T12:21:53;14.70;99.90
37530;DHT22;23374;52.758;6.872;2023-04-09T12:24:16;14.80;99.90
37530;DHT22;23374;52.758;6.872;2023-04-09T12:26:36;14.90;1.00
37530;DHT22;23374;52.758;6.872;2023-04-09T12:28:56;14.90;1.00
37530;DHT22;23374;52.758;6.872;2023-04-09T12:31:16;15.00;1.00
37530;DHT22;23374;52.758;6.872;2023-04-09T12:33:37;15.10;1.00
37530;DHT22;23374;52.758;6.872;2023-04-09T12:35:59;15.20;1.00
37530;DHT22;23374;52.758;6.872;2023-04-09T12:38:19;15.30;1.00
37530;DHT22;23374;52.758;6.872;2023-04-09T12:40:40;15.40;1.00
37530;DHT22;23374;52.758;6.872;2023-04-09T12:43:00;15.60;1.00
37530;DHT22;23374;52.758;6.872;2023-04-09T12:45:21;15.70;1.00
37530;DHT22;23374;52.758;6.872;2023-04-09T12:47:42;15.70;99.90
37530;DHT22;23374;52.758;6.872;2023-04-09T12:50:03;15.90;1.00
37530;DHT22;23374;52.758;6.872;2023-04-09T12:52:23;16.00;99.90
37530;DHT22;23374;52.758;6.872;2023-04-09T12:54:44;15.90;99.90
37530;DHT22;23374;52.758;6.872;2023-04-09T12:57:04;15.80;99.90
37530;DHT22;23374;52.758;6.872;2023-04-09T12:59:24;15.80;99.90
37530;DHT22;23374;52.758;6.872;2023-04-09T13:01:45;15.70;99.90
37530;DHT22;23374;52.758;6.872;2023-04-09T13:04:05;15.70;99.90
37530;DHT22;23374;52.758;6.872;2023-04-09T13:06:25;15.60;99.90
37530;DHT22;23374;52.758;6.872;2023-04-09T13:08:45;15.60;99.90
37530;DHT22;23374;52.758;6.872;2023-04-09T13:11:05;15.60;99.90
37530;DHT22;23374;52.758;6.872;2023-04-09T13:13:25;15.60;99.90
37530;DHT22;23374;52.758;6.872;2023-04-09T13:15:47;15.60;91.40
37530;DHT22;23374;52.758;6.872;2023-04-09T13:18:07;15.60;96.50
37530;DHT22;23374;52.758;6.872;2023-04-09T13:20:27;15.60;99.90
37530;DHT22;23374;52.758;6.872;2023-04-09T13:22:48;15.60;99.90
37530;DHT22;23374;52.758;6.872;2023-04-09T13:25:09;15.60;99.90
37530;DHT22;23374;52.758;6.872;2023-04-09T13:27:29;15.60;99.90
37530;DHT22;23374;52.758;6.872;2023-04-09T13:29:50;15.60;81.30
37530;DHT22;23374;52.758;6.872;2023-04-09T13:32:10;15.70;93.80
37530;DHT22;23374;52.758;6.872;2023-04-09T13:34:30;15.70;99.90
37530;DHT22;23374;52.758;6.872;2023-04-09T13:36:50;15.70;99.90
37530;DHT22;23374;52.758;6.872;2023-04-09T13:39:11;15.70;48.40
37530;DHT22;23374;52.758;6.872;2023-04-09T13:41:32;15.70;91.20
37530;DHT22;23374;52.758;6.872;2023-04-09T13:43:53;15.80;99.90
37530;DHT22;23374;52.758;6.872;2023-04-09T13:46:12;15.90;99.90
37530;DHT22;23374;52.758;6.872;2023-04-09T13:48:33;16.10;1.00
37530;DHT22;23374;52.758;6.872;2023-04-09T13:50:53;16.20;1.00
37530;DHT22;23374;52.758;6.872;2023-04-09T13:53:14;16.30;99.90
37530;DHT22;23374;52.758;6.872;2023-04-09T13:55:34;16.30;32.20
37530;DHT22;23374;52.758;6.872;2023-04-09T13:57:54;16.20;58.10
37530;DHT22;23374;52.758;6.872;2023-04-09T14:00:15;16.10;1.00
37530;DHT22;23374;52.758;6.872;2023-04-09T14:02:36;16.10;1.00
37530;DHT22;23374;52.758;6.872;2023-04-09T14:04:56;16.20;58.00
37530;DHT22;23374;52.758;6.872;2023-04-09T14:07:17;16.30;59.80
37530;DHT22;23374;52.758;6.872;2023-04-09T14:09:37;16.40;20.40
37530;DHT22;23374;52.758;6.872;2023-04-09T14:11:58;16.40;1.00
37530;DHT22;23374;52.758;6.872;2023-04-09T14:14:18;16.60;14.60
37530;DHT22;23374;52.758;6.872;2023-04-09T14:16:38;16.70;41.90
37530;DHT22;23374;52.758;6.872;2023-04-09T14:18:59;16.90;1.00
37530;DHT22;23374;52.758;6.872;2023-04-09T14:21:20;16.90;1.00
37530;DHT22;23374;52.758;6.872;2023-04-09T14:23:40;16.90;1.00
37530;DHT22;23374;52.758;6.872;2023-04-09T14:26:02;16.90;1.00
37530;DHT22;23374;52.758;6.872;2023-04-09T14:28:23;16.90;1.00
37530;DHT22;23374;52.758;6.872;2023-04-09T14:30:43;16.80;1.00
37530;DHT22;23374;52.758;6.872;2023-04-09T14:33:04;16.70;1.00
37530;DHT22;23374;52.758;6.872;2023-04-09T14:35:24;16.50;1.00
37530;DHT22;23374;52.758;6.872;2023-04-09T14:37:45;16.50;1.00
37530;DHT22;23374;52.758;6.872;2023-04-09T14:40:09;16.40;1.00
37530;DHT22;23374;52.758;6.872;2023-04-09T14:42:29;16.30;1.00
37530;DHT22;23374;52.758;6.872;2023-04-09T14:44:49;16.30;1.00
37530;DHT22;23374;52.758;6.872;2023-04-09T14:47:10;16.30;1.00
37530;DHT22;23374;52.758;6.872;2023-04-09T14:49:30;16.30;1.00
37530;DHT22;23374;52.758;6.872;2023-04-09T14:51:50;16.30;1.00
37530;DHT22;23374;52.758;6.872;2023-04-09T14:54:11;16.30;1.00
37530;DHT22;23374;52.758;6.872;2023-04-09T14:56:31;16.20;1.00
37530;DHT22;23374;52.758;6.872;2023-04-09T14:58:51;16.00;1.00
37530;DHT22;23374;52.758;6.872;2023-04-09T15:01:12;15.90;1.00
37530;DHT22;23374;52.758;6.872;2023-04-09T15:03:32;15.80;1.00
37530;DHT22;23374;52.758;6.872;2023-04-09T15:05:52;15.80;1.00
37530;DHT22;23374;52.758;6.872;2023-04-09T15:08:12;15.80;1.00
37530;DHT22;23374;52.758;6.872;2023-04-09T15:10:35;15.70;1.00
37530;DHT22;23374;52.758;6.872;2023-04-09T15:12:56;15.70;1.00
37530;DHT22;23374;52.758;6.872;2023-04-09T15:15:16;15.70;1.00
37530;DHT22;23374;52.758;6.872;2023-04-09T15:17:36;15.80;1.00
37530;DHT22;23374;52.758;6.872;2023-04-09T15:19:57;15.80;1.00
37530;DHT22;23374;52.758;6.872;2023-04-09T15:22:17;15.90;1.00